Terminal Aerodrome Forecast
Issued by NWS Charleston, WV

Home | Current Version | Previous Version | Text Only | Print | Product List | Glossary On
Versions: 1 2 3 4 5 6 7 8 9 10 11 12 13 14 15 16 17 18 19 20 21 22
682
FTUS41 KRLX 230253 AAA
TAFHTS
TAF AMD
KHTS 230253Z 2303/2324 15002KT P6SM BKN250
     FM230800 14005KT P6SM BKN100
     FM231500 13007G14KT 4SM SHRA OVC050
     FM231900 17010G20KT 2SM SHRA OVC025
     FM232200 20008KT 4SM SHRA BKN045=

USA.gov is the U.S. government's official web portal to all federal, state and local government web resources and services.